sensor_id;sensor_type;location;lat;lon;timestamp;P1;durP1;ratioP1;P2;durP2;ratioP2
4460;SDS011;2243;48.812;9.232;2023-04-10T00:01:49;13.40;;;10.00;;
4460;SDS011;2243;48.812;9.232;2023-04-10T00:04:20;13.10;;;9.90;;
4460;SDS011;2243;48.812;9.232;2023-04-10T00:06:52;12.10;;;9.50;;
4460;SDS011;2243;48.812;9.232;2023-04-10T00:09:24;12.53;;;9.40;;
4460;SDS011;2243;48.812;9.232;2023-04-10T00:11:55;16.20;;;10.20;;
4460;SDS011;2243;48.812;9.232;2023-04-10T00:14:26;13.03;;;9.63;;
4460;SDS011;2243;48.812;9.232;2023-04-10T00:16:57;15.30;;;10.40;;
4460;SDS011;2243;48.812;9.232;2023-04-10T00:19:29;12.93;;;9.60;;
4460;SDS011;2243;48.812;9.232;2023-04-10T00:22:00;12.87;;;9.77;;
4460;SDS011;2243;48.812;9.232;2023-04-10T00:24:31;10.63;;;8.90;;
4460;SDS011;2243;48.812;9.232;2023-04-10T00:27:02;10.13;;;8.43;;
4460;SDS011;2243;48.812;9.232;2023-04-10T00:29:33;11.70;;;9.77;;
4460;SDS011;2243;48.812;9.232;2023-04-10T00:32:04;14.57;;;10.83;;
4460;SDS011;2243;48.812;9.232;2023-04-10T00:34:35;13.70;;;9.70;;
4460;SDS011;2243;48.812;9.232;2023-04-10T00:37:05;14.40;;;9.93;;
4460;SDS011;2243;48.812;9.232;2023-04-10T00:39:37;14.10;;;10.10;;
4460;SDS011;2243;48.812;9.232;2023-04-10T00:42:08;16.50;;;9.60;;
4460;SDS011;2243;48.812;9.232;2023-04-10T00:44:39;14.33;;;9.57;;
4460;SDS011;2243;48.812;9.232;2023-04-10T00:47:11;15.03;;;10.10;;
4460;SDS011;2243;48.812;9.232;2023-04-10T00:49:43;10.23;;;8.80;;
4460;SDS011;2243;48.812;9.232;2023-04-10T00:52:14;13.03;;;8.90;;
4460;SDS011;2243;48.812;9.232;2023-04-10T00:54:45;14.40;;;10.33;;
4460;SDS011;2243;48.812;9.232;2023-04-10T00:57:16;13.27;;;10.13;;
4460;SDS011;2243;48.812;9.232;2023-04-10T00:59:47;13.87;;;9.33;;
4460;SDS011;2243;48.812;9.232;2023-04-10T01:02:21;11.93;;;9.40;;
4460;SDS011;2243;48.812;9.232;2023-04-10T01:04:52;14.17;;;9.80;;
4460;SDS011;2243;48.812;9.232;2023-04-10T01:10:49;13.97;;;10.73;;
4460;SDS011;2243;48.812;9.232;2023-04-10T01:13:34;13.60;;;10.00;;
4460;SDS011;2243;48.812;9.232;2023-04-10T01:16:35;13.23;;;9.50;;
4460;SDS011;2243;48.812;9.232;2023-04-10T01:22:25;13.30;;;9.37;;
4460;SDS011;2243;48.812;9.232;2023-04-10T01:31:27;14.10;;;10.60;;
4460;SDS011;2243;48.812;9.232;2023-04-10T01:34:01;14.90;;;10.20;;
4460;SDS011;2243;48.812;9.232;2023-04-10T01:36:39;14.87;;;10.73;;
4460;SDS011;2243;48.812;9.232;2023-04-10T01:39:21;17.33;;;11.57;;
4460;SDS011;2243;48.812;9.232;2023-04-10T01:41:54;14.40;;;10.63;;
4460;SDS011;2243;48.812;9.232;2023-04-10T01:44:29;13.57;;;10.03;;
4460;SDS011;2243;48.812;9.232;2023-04-10T01:47:01;13.90;;;9.70;;
4460;SDS011;2243;48.812;9.232;2023-04-10T01:49:36;12.83;;;9.07;;
4460;SDS011;2243;48.812;9.232;2023-04-10T01:52:14;15.90;;;10.37;;
4460;SDS011;2243;48.812;9.232;2023-04-10T01:54:46;15.80;;;9.90;;
4460;SDS011;2243;48.812;9.232;2023-04-10T01:57:18;16.80;;;10.30;;
4460;SDS011;2243;48.812;9.232;2023-04-10T01:59:50;13.63;;;9.60;;
4460;SDS011;2243;48.812;9.232;2023-04-10T02:02:20;14.27;;;10.27;;
4460;SDS011;2243;48.812;9.232;2023-04-10T02:04:52;13.93;;;9.50;;
4460;SDS011;2243;48.812;9.232;2023-04-10T02:07:28;14.60;;;10.10;;
4460;SDS011;2243;48.812;9.232;2023-04-10T02:12:58;13.30;;;10.57;;
4460;SDS011;2243;48.812;9.232;2023-04-10T02:15:34;15.50;;;11.20;;
4460;SDS011;2243;48.812;9.232;2023-04-10T02:18:13;14.83;;;9.63;;
4460;SDS011;2243;48.812;9.232;2023-04-10T02:20:47;13.30;;;9.90;;
4460;SDS011;2243;48.812;9.232;2023-04-10T02:23:18;12.17;;;10.00;;
4460;SDS011;2243;48.812;9.232;2023-04-10T02:25:50;14.60;;;9.67;;
4460;SDS011;2243;48.812;9.232;2023-04-10T02:28:21;13.90;;;9.80;;
4460;SDS011;2243;48.812;9.232;2023-04-10T02:30:52;14.30;;;10.20;;
4460;SDS011;2243;48.812;9.232;2023-04-10T02:33:23;16.10;;;10.50;;
4460;SDS011;2243;48.812;9.232;2023-04-10T02:35:54;14.43;;;10.33;;
4460;SDS011;2243;48.812;9.232;2023-04-10T02:38:25;13.23;;;9.23;;
4460;SDS011;2243;48.812;9.232;2023-04-10T02:40:56;14.53;;;10.13;;
4460;SDS011;2243;48.812;9.232;2023-04-10T02:43:27;12.77;;;9.60;;
4460;SDS011;2243;48.812;9.232;2023-04-10T02:45:58;12.60;;;9.90;;
4460;SDS011;2243;48.812;9.232;2023-04-10T02:48:29;15.80;;;10.60;;
4460;SDS011;2243;48.812;9.232;2023-04-10T02:51:00;14.63;;;10.10;;
4460;SDS011;2243;48.812;9.232;2023-04-10T02:53:32;12.60;;;10.13;;
4460;SDS011;2243;48.812;9.232;2023-04-10T02:56:03;13.83;;;10.17;;
4460;SDS011;2243;48.812;9.232;2023-04-10T02:58:38;14.23;;;9.43;;
4460;SDS011;2243;48.812;9.232;2023-04-10T03:01:09;14.07;;;9.73;;
4460;SDS011;2243;48.812;9.232;2023-04-10T03:03:40;15.20;;;10.30;;
4460;SDS011;2243;48.812;9.232;2023-04-10T03:06:11;13.50;;;10.17;;
4460;SDS011;2243;48.812;9.232;2023-04-10T03:08:42;14.63;;;10.90;;
4460;SDS011;2243;48.812;9.232;2023-04-10T03:11:13;11.80;;;9.50;;
4460;SDS011;2243;48.812;9.232;2023-04-10T03:13:44;13.30;;;9.80;;
4460;SDS011;2243;48.812;9.232;2023-04-10T03:16:15;16.60;;;10.17;;
4460;SDS011;2243;48.812;9.232;2023-04-10T03:18:48;12.40;;;9.80;;
4460;SDS011;2243;48.812;9.232;2023-04-10T03:21:19;18.67;;;10.90;;
4460;SDS011;2243;48.812;9.232;2023-04-10T03:23:50;13.33;;;9.87;;
4460;SDS011;2243;48.812;9.232;2023-04-10T03:26:21;15.30;;;11.17;;
4460;SDS011;2243;48.812;9.232;2023-04-10T03:28:53;13.00;;;9.90;;
4460;SDS011;2243;48.812;9.232;2023-04-10T03:31:24;13.60;;;10.13;;
4460;SDS011;2243;48.812;9.232;2023-04-10T03:33:55;14.07;;;9.53;;
4460;SDS011;2243;48.812;9.232;2023-04-10T03:36:26;13.93;;;9.27;;
4460;SDS011;2243;48.812;9.232;2023-04-10T03:38:57;18.73;;;10.53;;
4460;SDS011;2243;48.812;9.232;2023-04-10T03:41:28;16.47;;;10.83;;
4460;SDS011;2243;48.812;9.232;2023-04-10T03:44:00;11.40;;;8.87;;
4460;SDS011;2243;48.812;9.232;2023-04-10T03:46:32;12.97;;;9.90;;
4460;SDS011;2243;48.812;9.232;2023-04-10T03:49:03;12.90;;;9.50;;
4460;SDS011;2243;48.812;9.232;2023-04-10T03:51:34;16.43;;;11.40;;
4460;SDS011;2243;48.812;9.232;2023-04-10T03:54:05;15.23;;;11.87;;
4460;SDS011;2243;48.812;9.232;2023-04-10T03:56:36;17.67;;;11.70;;
4460;SDS011;2243;48.812;9.232;2023-04-10T03:59:07;15.60;;;10.90;;
4460;SDS011;2243;48.812;9.232;2023-04-10T04:01:38;17.73;;;11.70;;
4460;SDS011;2243;48.812;9.232;2023-04-10T04:04:09;14.20;;;10.53;;
4460;SDS011;2243;48.812;9.232;2023-04-10T04:06:40;16.47;;;10.53;;
4460;SDS011;2243;48.812;9.232;2023-04-10T04:09:11;19.30;;;10.80;;
4460;SDS011;2243;48.812;9.232;2023-04-10T04:11:42;15.60;;;10.33;;
4460;SDS011;2243;48.812;9.232;2023-04-10T04:14:13;15.70;;;10.50;;
4460;SDS011;2243;48.812;9.232;2023-04-10T04:16:44;12.30;;;10.17;;
4460;SDS011;2243;48.812;9.232;2023-04-10T04:19:15;13.97;;;10.90;;
4460;SDS011;2243;48.812;9.232;2023-04-10T04:21:46;24.80;;;11.70;;
4460;SDS011;2243;48.812;9.232;2023-04-10T04:24:17;18.10;;;11.40;;
4460;SDS011;2243;48.812;9.232;2023-04-10T04:26:48;16.60;;;11.03;;
4460;SDS011;2243;48.812;9.232;2023-04-10T04:29:19;16.33;;;10.83;;
4460;SDS011;2243;48.812;9.232;2023-04-10T04:31:49;14.53;;;10.40;;
4460;SDS011;2243;48.812;9.232;2023-04-10T04:34:20;12.80;;;9.90;;
4460;SDS011;2243;48.812;9.232;2023-04-10T04:36:51;13.67;;;9.93;;
4460;SDS011;2243;48.812;9.232;2023-04-10T04:39:22;15.10;;;10.40;;
4460;SDS011;2243;48.812;9.232;2023-04-10T04:41:53;15.33;;;10.90;;
4460;SDS011;2243;48.812;9.232;2023-04-10T04:44:24;19.03;;;11.90;;
4460;SDS011;2243;48.812;9.232;2023-04-10T04:46:55;15.07;;;10.50;;
4460;SDS011;2243;48.812;9.232;2023-04-10T04:49:26;14.00;;;9.10;;
4460;SDS011;2243;48.812;9.232;2023-04-10T04:51:57;15.47;;;11.37;;
4460;SDS011;2243;48.812;9.232;2023-04-10T04:54:28;12.27;;;9.97;;
4460;SDS011;2243;48.812;9.232;2023-04-10T04:56:59;13.73;;;10.27;;
4460;SDS011;2243;48.812;9.232;2023-04-10T04:59:30;18.03;;;10.40;;
4460;SDS011;2243;48.812;9.232;2023-04-10T05:02:01;12.53;;;9.83;;
4460;SDS011;2243;48.812;9.232;2023-04-10T05:04:32;15.10;;;10.40;;
4460;SDS011;2243;48.812;9.232;2023-04-10T05:07:04;16.13;;;11.13;;
4460;SDS011;2243;48.812;9.232;2023-04-10T05:09:35;14.43;;;10.10;;
4460;SDS011;2243;48.812;9.232;2023-04-10T05:12:06;20.30;;;11.03;;
4460;SDS011;2243;48.812;9.232;2023-04-10T05:14:36;15.10;;;10.80;;
4460;SDS011;2243;48.812;9.232;2023-04-10T05:17:07;15.10;;;10.40;;
4460;SDS011;2243;48.812;9.232;2023-04-10T05:19:38;16.37;;;10.20;;
4460;SDS011;2243;48.812;9.232;2023-04-10T05:22:09;14.67;;;9.93;;
4460;SDS011;2243;48.812;9.232;2023-04-10T05:24:40;16.70;;;10.90;;
4460;SDS011;2243;48.812;9.232;2023-04-10T05:27:11;14.30;;;10.43;;
4460;SDS011;2243;48.812;9.232;2023-04-10T05:29:42;11.30;;;9.50;;
4460;SDS011;2243;48.812;9.232;2023-04-10T05:32:13;13.63;;;9.60;;
4460;SDS011;2243;48.812;9.232;2023-04-10T05:34:44;17.27;;;11.30;;
4460;SDS011;2243;48.812;9.232;2023-04-10T05:37:15;16.20;;;10.37;;
4460;SDS011;2243;48.812;9.232;2023-04-10T05:39:46;14.30;;;10.20;;
4460;SDS011;2243;48.812;9.232;2023-04-10T05:42:17;13.70;;;10.73;;
4460;SDS011;2243;48.812;9.232;2023-04-10T05:44:48;15.97;;;10.93;;
4460;SDS011;2243;48.812;9.232;2023-04-10T05:47:20;19.67;;;12.00;;
4460;SDS011;2243;48.812;9.232;2023-04-10T05:49:50;18.07;;;11.63;;
4460;SDS011;2243;48.812;9.232;2023-04-10T05:52:21;13.90;;;10.50;;
4460;SDS011;2243;48.812;9.232;2023-04-10T05:54:52;17.43;;;11.00;;
4460;SDS011;2243;48.812;9.232;2023-04-10T05:57:24;17.17;;;12.17;;
4460;SDS011;2243;48.812;9.232;2023-04-10T05:59:55;15.27;;;11.20;;
4460;SDS011;2243;48.812;9.232;2023-04-10T06:02:25;15.77;;;10.63;;
4460;SDS011;2243;48.812;9.232;2023-04-10T06:04:57;16.97;;;11.03;;
4460;SDS011;2243;48.812;9.232;2023-04-10T06:07:28;18.00;;;11.57;;
4460;SDS011;2243;48.812;9.232;2023-04-10T06:09:59;16.77;;;11.10;;
4460;SDS011;2243;48.812;9.232;2023-04-10T06:12:30;15.77;;;10.90;;
4460;SDS011;2243;48.812;9.232;2023-04-10T06:15:01;16.07;;;12.73;;
4460;SDS011;2243;48.812;9.232;2023-04-10T06:17:32;18.80;;;11.37;;
4460;SDS011;2243;48.812;9.232;2023-04-10T06:20:03;13.50;;;9.73;;
4460;SDS011;2243;48.812;9.232;2023-04-10T06:22:34;12.23;;;9.47;;
4460;SDS011;2243;48.812;9.232;2023-04-10T06:25:05;17.90;;;12.03;;
4460;SDS011;2243;48.812;9.232;2023-04-10T06:27:36;17.60;;;12.10;;
4460;SDS011;2243;48.812;9.232;2023-04-10T06:30:08;15.57;;;11.33;;
4460;SDS011;2243;48.812;9.232;2023-04-10T06:32:39;15.20;;;10.43;;
4460;SDS011;2243;48.812;9.232;2023-04-10T06:35:11;15.07;;;11.25;;
4460;SDS011;2243;48.812;9.232;2023-04-10T06:37:42;14.63;;;11.23;;
4460;SDS011;2243;48.812;9.232;2023-04-10T06:40:13;15.90;;;11.53;;
4460;SDS011;2243;48.812;9.232;2023-04-10T06:42:45;16.00;;;11.57;;
4460;SDS011;2243;48.812;9.232;2023-04-10T06:45:16;14.93;;;10.93;;
4460;SDS011;2243;48.812;9.232;2023-04-10T06:47:47;18.37;;;11.63;;
4460;SDS011;2243;48.812;9.232;2023-04-10T06:50:18;15.60;;;10.80;;
4460;SDS011;2243;48.812;9.232;2023-04-10T06:52:49;13.40;;;10.10;;
4460;SDS011;2243;48.812;9.232;2023-04-10T06:55:22;13.77;;;10.27;;
4460;SDS011;2243;48.812;9.232;2023-04-10T06:57:53;12.53;;;9.37;;
4460;SDS011;2243;48.812;9.232;2023-04-10T07:00:25;13.77;;;9.80;;
4460;SDS011;2243;48.812;9.232;2023-04-10T07:02:56;12.50;;;9.60;;
4460;SDS011;2243;48.812;9.232;2023-04-10T07:05:27;13.50;;;9.87;;
4460;SDS011;2243;48.812;9.232;2023-04-10T07:07:58;12.93;;;8.20;;
4460;SDS011;2243;48.812;9.232;2023-04-10T07:10:29;11.20;;;8.23;;
4460;SDS011;2243;48.812;9.232;2023-04-10T07:13:00;10.50;;;8.70;;
4460;SDS011;2243;48.812;9.232;2023-04-10T07:15:32;11.97;;;8.93;;
4460;SDS011;2243;48.812;9.232;2023-04-10T07:18:03;11.50;;;8.50;;
4460;SDS011;2243;48.812;9.232;2023-04-10T07:20:35;11.00;;;8.47;;
4460;SDS011;2243;48.812;9.232;2023-04-10T07:23:06;11.20;;;8.60;;
4460;SDS011;2243;48.812;9.232;2023-04-10T07:25:37;11.93;;;9.03;;
4460;SDS011;2243;48.812;9.232;2023-04-10T07:28:08;11.33;;;8.90;;
4460;SDS011;2243;48.812;9.232;2023-04-10T07:30:39;12.80;;;8.50;;
4460;SDS011;2243;48.812;9.232;2023-04-10T07:33:10;12.57;;;8.63;;
4460;SDS011;2243;48.812;9.232;2023-04-10T07:35:41;8.43;;;7.50;;
4460;SDS011;2243;48.812;9.232;2023-04-10T07:38:12;10.50;;;8.53;;
4460;SDS011;2243;48.812;9.232;2023-04-10T07:40:43;13.87;;;8.47;;
4460;SDS011;2243;48.812;9.232;2023-04-10T07:43:14;13.00;;;8.13;;
4460;SDS011;2243;48.812;9.232;2023-04-10T07:45:45;8.70;;;7.50;;
4460;SDS011;2243;48.812;9.232;2023-04-10T07:48:17;9.13;;;7.63;;
4460;SDS011;2243;48.812;9.232;2023-04-10T07:50:48;10.93;;;8.57;;
4460;SDS011;2243;48.812;9.232;2023-04-10T07:53:19;10.80;;;7.60;;
4460;SDS011;2243;48.812;9.232;2023-04-10T07:55:50;10.70;;;8.00;;
4460;SDS011;2243;48.812;9.232;2023-04-10T07:58:22;10.83;;;7.90;;
4460;SDS011;2243;48.812;9.232;2023-04-10T08:00:53;10.80;;;7.20;;
4460;SDS011;2243;48.812;9.232;2023-04-10T08:03:24;11.50;;;7.80;;
4460;SDS011;2243;48.812;9.232;2023-04-10T08:05:56;8.97;;;7.80;;
4460;SDS011;2243;48.812;9.232;2023-04-10T08:08:27;10.90;;;8.07;;
4460;SDS011;2243;48.812;9.232;2023-04-10T08:10:58;9.73;;;6.63;;
4460;SDS011;2243;48.812;9.232;2023-04-10T08:13:29;7.57;;;6.60;;
4460;SDS011;2243;48.812;9.232;2023-04-10T08:16:00;8.43;;;7.20;;
4460;SDS011;2243;48.812;9.232;2023-04-10T08:18:31;7.13;;;6.33;;
4460;SDS011;2243;48.812;9.232;2023-04-10T08:21:03;9.33;;;6.80;;
4460;SDS011;2243;48.812;9.232;2023-04-10T08:23:34;6.93;;;6.23;;
4460;SDS011;2243;48.812;9.232;2023-04-10T08:26:05;9.40;;;6.87;;
4460;SDS011;2243;48.812;9.232;2023-04-10T08:28:36;6.40;;;5.57;;
4460;SDS011;2243;48.812;9.232;2023-04-10T08:31:07;8.80;;;6.20;;
4460;SDS011;2243;48.812;9.232;2023-04-10T08:33:38;6.30;;;5.63;;
4460;SDS011;2243;48.812;9.232;2023-04-10T08:36:10;6.43;;;5.87;;
4460;SDS011;2243;48.812;9.232;2023-04-10T08:38:42;5.90;;;5.40;;
4460;SDS011;2243;48.812;9.232;2023-04-10T08:41:15;5.30;;;4.80;;
4460;SDS011;2243;48.812;9.232;2023-04-10T08:43:47;7.33;;;4.90;;
4460;SDS011;2243;48.812;9.232;2023-04-10T08:46:21;5.70;;;4.70;;
4460;SDS011;2243;48.812;9.232;2023-04-10T08:49:02;7.43;;;5.30;;
4460;SDS011;2243;48.812;9.232;2023-04-10T08:51:35;6.37;;;4.97;;
4460;SDS011;2243;48.812;9.232;2023-04-10T08:54:24;5.73;;;4.37;;
4460;SDS011;2243;48.812;9.232;2023-04-10T08:57:03;4.70;;;4.20;;
4460;SDS011;2243;48.812;9.232;2023-04-10T08:59:38;4.80;;;4.40;;
4460;SDS011;2243;48.812;9.232;2023-04-10T09:02:09;4.57;;;4.03;;
4460;SDS011;2243;48.812;9.232;2023-04-10T09:04:46;4.23;;;3.83;;
4460;SDS011;2243;48.812;9.232;2023-04-10T09:07:19;4.57;;;4.17;;
4460;SDS011;2243;48.812;9.232;2023-04-10T09:09:52;4.57;;;4.03;;
4460;SDS011;2243;48.812;9.232;2023-04-10T09:12:23;4.27;;;3.93;;
4460;SDS011;2243;48.812;9.232;2023-04-10T09:14:55;3.97;;;3.57;;
4460;SDS011;2243;48.812;9.232;2023-04-10T09:17:26;3.63;;;3.40;;
4460;SDS011;2243;48.812;9.232;2023-04-10T09:19:57;4.20;;;3.90;;
4460;SDS011;2243;48.812;9.232;2023-04-10T09:22:32;3.87;;;3.57;;
4460;SDS011;2243;48.812;9.232;2023-04-10T09:25:04;4.40;;;3.80;;
4460;SDS011;2243;48.812;9.232;2023-04-10T09:27:36;3.93;;;3.57;;
4460;SDS011;2243;48.812;9.232;2023-04-10T09:30:09;4.87;;;4.23;;
4460;SDS011;2243;48.812;9.232;2023-04-10T09:32:41;4.27;;;3.87;;
4460;SDS011;2243;48.812;9.232;2023-04-10T09:35:15;5.20;;;4.70;;
4460;SDS011;2243;48.812;9.232;2023-04-10T09:37:46;3.90;;;3.43;;
4460;SDS011;2243;48.812;9.232;2023-04-10T09:40:20;4.00;;;3.70;;
4460;SDS011;2243;48.812;9.232;2023-04-10T09:42:55;4.03;;;3.73;;
4460;SDS011;2243;48.812;9.232;2023-04-10T09:45:26;4.10;;;3.77;;
4460;SDS011;2243;48.812;9.232;2023-04-10T09:48:23;4.73;;;3.13;;
4460;SDS011;2243;48.812;9.232;2023-04-10T09:50:56;3.60;;;3.30;;
4460;SDS011;2243;48.812;9.232;2023-04-10T09:53:27;3.53;;;3.23;;
4460;SDS011;2243;48.812;9.232;2023-04-10T09:55:58;3.07;;;2.87;;
4460;SDS011;2243;48.812;9.232;2023-04-10T09:58:30;3.10;;;2.90;;
4460;SDS011;2243;48.812;9.232;2023-04-10T10:01:01;3.20;;;3.00;;
4460;SDS011;2243;48.812;9.232;2023-04-10T10:03:32;3.27;;;2.97;;
4460;SDS011;2243;48.812;9.232;2023-04-10T10:06:03;2.97;;;2.80;;
4460;SDS011;2243;48.812;9.232;2023-04-10T10:08:35;3.47;;;3.17;;
4460;SDS011;2243;48.812;9.232;2023-04-10T10:11:06;3.37;;;3.17;;
4460;SDS011;2243;48.812;9.232;2023-04-10T10:13:42;3.30;;;2.90;;
4460;SDS011;2243;48.812;9.232;2023-04-10T10:16:36;3.27;;;3.00;;
4460;SDS011;2243;48.812;9.232;2023-04-10T10:22:00;2.93;;;2.73;;
4460;SDS011;2243;48.812;9.232;2023-04-10T10:24:32;3.00;;;2.80;;
4460;SDS011;2243;48.812;9.232;2023-04-10T10:27:05;3.47;;;3.17;;
4460;SDS011;2243;48.812;9.232;2023-04-10T10:29:39;3.00;;;2.80;;
4460;SDS011;2243;48.812;9.232;2023-04-10T10:32:13;3.40;;;3.10;;
4460;SDS011;2243;48.812;9.232;2023-04-10T10:34:47;3.07;;;2.93;;
4460;SDS011;2243;48.812;9.232;2023-04-10T10:37:22;2.80;;;2.60;;
4460;SDS011;2243;48.812;9.232;2023-04-10T10:45:29;2.83;;;2.73;;
4460;SDS011;2243;48.812;9.232;2023-04-10T10:48:05;2.80;;;2.70;;
4460;SDS011;2243;48.812;9.232;2023-04-10T10:50:50;2.43;;;2.33;;
4460;SDS011;2243;48.812;9.232;2023-04-10T10:53:36;2.40;;;2.30;;
4460;SDS011;2243;48.812;9.232;2023-04-10T10:58:49;2.40;;;2.30;;
4460;SDS011;2243;48.812;9.232;2023-04-10T11:01:26;3.50;;;2.33;;
4460;SDS011;2243;48.812;9.232;2023-04-10T11:03:58;2.60;;;2.40;;
4460;SDS011;2243;48.812;9.232;2023-04-10T11:06:47;3.37;;;3.17;;
4460;SDS011;2243;48.812;9.232;2023-04-10T11:12:20;2.50;;;2.30;;
4460;SDS011;2243;48.812;9.232;2023-04-10T11:14:57;2.20;;;2.10;;
4460;SDS011;2243;48.812;9.232;2023-04-10T11:17:50;3.03;;;2.80;;
4460;SDS011;2243;48.812;9.232;2023-04-10T11:20:23;2.77;;;2.40;;
4460;SDS011;2243;48.812;9.232;2023-04-10T11:25:48;2.30;;;2.20;;
4460;SDS011;2243;48.812;9.232;2023-04-10T11:31:20;2.23;;;2.13;;
4460;SDS011;2243;48.812;9.232;2023-04-10T11:36:29;2.33;;;2.23;;
4460;SDS011;2243;48.812;9.232;2023-04-10T11:39:05;2.67;;;2.00;;
4460;SDS011;2243;48.812;9.232;2023-04-10T11:41:45;2.50;;;1.70;;
4460;SDS011;2243;48.812;9.232;2023-04-10T11:47:01;2.00;;;1.87;;
4460;SDS011;2243;48.812;9.232;2023-04-10T11:49:32;2.00;;;1.90;;
4460;SDS011;2243;48.812;9.232;2023-04-10T11:52:04;2.27;;;2.17;;
4460;SDS011;2243;48.812;9.232;2023-04-10T11:54:35;2.30;;;2.20;;
4460;SDS011;2243;48.812;9.232;2023-04-10T11:57:07;2.33;;;2.13;;
4460;SDS011;2243;48.812;9.232;2023-04-10T11:59:39;2.17;;;2.07;;
4460;SDS011;2243;48.812;9.232;2023-04-10T12:02:11;1.90;;;1.80;;
4460;SDS011;2243;48.812;9.232;2023-04-10T12:04:44;18.00;;;8.83;;
4460;SDS011;2243;48.812;9.232;2023-04-10T12:07:16;2.10;;;1.90;;
4460;SDS011;2243;48.812;9.232;2023-04-10T12:09:54;4.40;;;1.97;;
4460;SDS011;2243;48.812;9.232;2023-04-10T12:12:35;1.03;;;1.03;;
4460;SDS011;2243;48.812;9.232;2023-04-10T12:15:28;1.67;;;1.57;;
4460;SDS011;2243;48.812;9.232;2023-04-10T12:17:58;1.00;;;1.00;;
4460;SDS011;2243;48.812;9.232;2023-04-10T12:20:30;1.17;;;1.07;;
4460;SDS011;2243;48.812;9.232;2023-04-10T12:23:01;1.30;;;1.20;;
4460;SDS011;2243;48.812;9.232;2023-04-10T12:25:32;1.53;;;1.43;;
4460;SDS011;2243;48.812;9.232;2023-04-10T12:28:04;1.33;;;1.30;;
4460;SDS011;2243;48.812;9.232;2023-04-10T12:30:36;1.10;;;1.10;;
4460;SDS011;2243;48.812;9.232;2023-04-10T12:33:06;1.43;;;1.07;;
4460;SDS011;2243;48.812;9.232;2023-04-10T12:35:39;0.97;;;0.97;;
4460;SDS011;2243;48.812;9.232;2023-04-10T12:38:13;3.33;;;1.00;;
4460;SDS011;2243;48.812;9.232;2023-04-10T12:40:57;1.27;;;1.27;;
4460;SDS011;2243;48.812;9.232;2023-04-10T12:46:04;1.47;;;1.37;;
4460;SDS011;2243;48.812;9.232;2023-04-10T12:48:37;1.03;;;1.03;;
4460;SDS011;2243;48.812;9.232;2023-04-10T12:51:08;1.37;;;1.10;;
4460;SDS011;2243;48.812;9.232;2023-04-10T12:53:45;1.70;;;1.60;;
4460;SDS011;2243;48.812;9.232;2023-04-10T12:56:16;2.80;;;1.40;;
4460;SDS011;2243;48.812;9.232;2023-04-10T12:58:52;1.10;;;1.10;;
4460;SDS011;2243;48.812;9.232;2023-04-10T13:01:37;1.70;;;1.60;;
4460;SDS011;2243;48.812;9.232;2023-04-10T13:04:08;3.77;;;2.73;;
4460;SDS011;2243;48.812;9.232;2023-04-10T13:06:46;2.40;;;1.23;;
4460;SDS011;2243;48.812;9.232;2023-04-10T13:09:18;2.80;;;1.73;;
4460;SDS011;2243;48.812;9.232;2023-04-10T13:11:50;1.20;;;1.20;;
4460;SDS011;2243;48.812;9.232;2023-04-10T13:14:21;1.27;;;1.17;;
4460;SDS011;2243;48.812;9.232;2023-04-10T13:16:53;1.00;;;1.00;;
4460;SDS011;2243;48.812;9.232;2023-04-10T13:19:24;1.70;;;1.60;;
4460;SDS011;2243;48.812;9.232;2023-04-10T13:21:55;1.83;;;1.73;;
4460;SDS011;2243;48.812;9.232;2023-04-10T13:24:26;3.30;;;1.63;;
4460;SDS011;2243;48.812;9.232;2023-04-10T13:26:57;1.50;;;1.40;;
4460;SDS011;2243;48.812;9.232;2023-04-10T13:29:28;1.40;;;1.30;;
4460;SDS011;2243;48.812;9.232;2023-04-10T13:31:59;1.70;;;1.60;;
4460;SDS011;2243;48.812;9.232;2023-04-10T13:34:33;2.13;;;2.03;;
4460;SDS011;2243;48.812;9.232;2023-04-10T13:37:04;1.70;;;1.60;;
4460;SDS011;2243;48.812;9.232;2023-04-10T13:39:35;1.47;;;1.37;;
4460;SDS011;2243;48.812;9.232;2023-04-10T13:42:06;1.50;;;1.40;;
4460;SDS011;2243;48.812;9.232;2023-04-10T13:44:37;1.43;;;1.33;;
4460;SDS011;2243;48.812;9.232;2023-04-10T13:47:08;1.70;;;1.60;;
4460;SDS011;2243;48.812;9.232;2023-04-10T13:49:39;1.77;;;1.67;;
4460;SDS011;2243;48.812;9.232;2023-04-10T13:52:10;2.00;;;1.53;;
4460;SDS011;2243;48.812;9.232;2023-04-10T13:54:41;1.70;;;1.60;;
4460;SDS011;2243;48.812;9.232;2023-04-10T13:57:12;1.87;;;1.77;;
4460;SDS011;2243;48.812;9.232;2023-04-10T13:59:42;1.90;;;1.80;;
4460;SDS011;2243;48.812;9.232;2023-04-10T14:02:13;1.73;;;1.63;;
4460;SDS011;2243;48.812;9.232;2023-04-10T14:04:44;1.73;;;1.63;;
4460;SDS011;2243;48.812;9.232;2023-04-10T14:07:17;1.47;;;1.37;;
4460;SDS011;2243;48.812;9.232;2023-04-10T14:09:48;1.77;;;1.67;;
4460;SDS011;2243;48.812;9.232;2023-04-10T14:12:19;1.50;;;1.40;;
4460;SDS011;2243;48.812;9.232;2023-04-10T14:14:52;1.90;;;1.80;;
4460;SDS011;2243;48.812;9.232;2023-04-10T14:17:23;1.77;;;1.60;;
4460;SDS011;2243;48.812;9.232;2023-04-10T14:19:54;1.73;;;1.60;;
4460;SDS011;2243;48.812;9.232;2023-04-10T14:22:25;2.13;;;2.03;;
4460;SDS011;2243;48.812;9.232;2023-04-10T14:24:56;1.77;;;1.67;;
4460;SDS011;2243;48.812;9.232;2023-04-10T14:27:41;1.70;;;1.60;;
4460;SDS011;2243;48.812;9.232;2023-04-10T14:30:12;2.60;;;2.40;;
4460;SDS011;2243;48.812;9.232;2023-04-10T14:32:43;1.73;;;1.63;;
4460;SDS011;2243;48.812;9.232;2023-04-10T14:35:14;5.13;;;1.70;;
4460;SDS011;2243;48.812;9.232;2023-04-10T14:37:45;3.20;;;1.77;;
4460;SDS011;2243;48.812;9.232;2023-04-10T14:40:16;1.77;;;1.67;;
4460;SDS011;2243;48.812;9.232;2023-04-10T14:42:47;1.90;;;1.80;;
4460;SDS011;2243;48.812;9.232;2023-04-10T14:45:18;2.00;;;1.87;;
4460;SDS011;2243;48.812;9.232;2023-04-10T14:47:49;1.57;;;1.47;;
4460;SDS011;2243;48.812;9.232;2023-04-10T14:50:20;1.57;;;1.47;;
4460;SDS011;2243;48.812;9.232;2023-04-10T14:52:51;1.90;;;1.80;;
4460;SDS011;2243;48.812;9.232;2023-04-10T14:55:22;2.30;;;1.63;;
4460;SDS011;2243;48.812;9.232;2023-04-10T14:57:54;1.47;;;1.37;;
4460;SDS011;2243;48.812;9.232;2023-04-10T15:00:27;1.67;;;1.57;;
4460;SDS011;2243;48.812;9.232;2023-04-10T15:02:58;2.10;;;2.00;;
4460;SDS011;2243;48.812;9.232;2023-04-10T15:05:30;2.80;;;1.33;;
4460;SDS011;2243;48.812;9.232;2023-04-10T15:08:01;1.77;;;1.67;;
4460;SDS011;2243;48.812;9.232;2023-04-10T15:10:32;1.20;;;1.20;;
4460;SDS011;2243;48.812;9.232;2023-04-10T15:13:03;1.97;;;1.67;;
4460;SDS011;2243;48.812;9.232;2023-04-10T15:15:35;1.90;;;1.80;;
4460;SDS011;2243;48.812;9.232;2023-04-10T15:18:06;1.43;;;1.33;;
4460;SDS011;2243;48.812;9.232;2023-04-10T15:20:37;1.53;;;1.43;;
4460;SDS011;2243;48.812;9.232;2023-04-10T15:23:08;1.30;;;1.20;;
4460;SDS011;2243;48.812;9.232;2023-04-10T15:25:40;1.30;;;1.27;;
4460;SDS011;2243;48.812;9.232;2023-04-10T15:28:11;1.43;;;1.33;;
4460;SDS011;2243;48.812;9.232;2023-04-10T15:30:42;1.40;;;1.40;;
4460;SDS011;2243;48.812;9.232;2023-04-10T15:33:14;1.70;;;1.60;;
4460;SDS011;2243;48.812;9.232;2023-04-10T15:35:46;1.83;;;1.70;;
4460;SDS011;2243;48.812;9.232;2023-04-10T15:38:19;1.30;;;1.30;;
4460;SDS011;2243;48.812;9.232;2023-04-10T15:40:49;1.60;;;1.50;;
4460;SDS011;2243;48.812;9.232;2023-04-10T15:43:21;4.73;;;1.47;;
4460;SDS011;2243;48.812;9.232;2023-04-10T15:45:52;1.50;;;1.40;;
4460;SDS011;2243;48.812;9.232;2023-04-10T15:48:23;1.67;;;1.57;;
4460;SDS011;2243;48.812;9.232;2023-04-10T15:50:54;1.83;;;1.73;;
4460;SDS011;2243;48.812;9.232;2023-04-10T15:53:25;1.73;;;1.63;;
4460;SDS011;2243;48.812;9.232;2023-04-10T15:55:56;1.67;;;1.57;;
4460;SDS011;2243;48.812;9.232;2023-04-10T15:58:27;2.17;;;2.07;;
4460;SDS011;2243;48.812;9.232;2023-04-10T16:00:58;1.50;;;1.40;;
4460;SDS011;2243;48.812;9.232;2023-04-10T16:03:30;2.20;;;2.10;;
4460;SDS011;2243;48.812;9.232;2023-04-10T16:06:01;2.10;;;2.00;;
4460;SDS011;2243;48.812;9.232;2023-04-10T16:08:32;1.87;;;1.77;;
4460;SDS011;2243;48.812;9.232;2023-04-10T16:11:03;1.90;;;1.80;;
4460;SDS011;2243;48.812;9.232;2023-04-10T16:13:35;1.90;;;1.80;;
4460;SDS011;2243;48.812;9.232;2023-04-10T16:16:13;1.60;;;1.50;;
4460;SDS011;2243;48.812;9.232;2023-04-10T16:18:45;2.20;;;2.10;;
4460;SDS011;2243;48.812;9.232;2023-04-10T16:21:16;3.10;;;2.83;;